»·PEaware :: N232WP KMFR-KOTH

N232WP :: KMFR-KOTH

FLIGHT INFORMATION

Flight Status: Arrived
Operator: Privately registered:
United States
More flights under this callsign
Pilot: Walter P. (10403)
Aircraft: BEECH AIRCRAFT BARON
(BE58)
More flights by this aircraft type
Origin: KMFR Rogue Valley Intl-Medford
United States
Destination: KOTH North Bend Mun
United States
More flights between these airports :: More routes between these airports
Route: GNATS7 KOLER V287 OTH
File this flight plan on PilotEdge
Remarks: IMC vis.
Altitude:
(Current/Filed)
8,000ft
Speed:
(Current/Filed)
170kts
Departed: 06-Aug-18 03:28 PM
Arrived: 06-Aug-18 04:13 PM
Distance/Time
Traveled:
87nm/0:45
Distance/Time
To Go:
Arrived

Flight Plot

Page will automatically refresh every two minutes.

Flight plan parsing failed; only flown route is shown


Map Options




Map Legend


Flown Route
Filed Route
Departure Airport
Arrival Airport
Navaid (VOR, NDB)
Fix

Horizontal Profiles

Position Reports

Time Latitude Longitude Heading Altitude Ground
Speed
06-Aug-18 14:55 42.379193 -122.878554 249 1300ft 0kts
06-Aug-18 14:56 42.379193 -122.878554 249 1300ft 0kts
06-Aug-18 14:57 42.379193 -122.878554 249 1300ft 0kts
06-Aug-18 15:04 42.379192 -122.878559 249 1302ft 0kts
06-Aug-18 15:05 42.379192 -122.878559 249 1302ft 0kts
06-Aug-18 15:06 42.379192 -122.878559 249 1302ft 0kts
06-Aug-18 15:07 42.379192 -122.878560 249 1302ft 0kts
06-Aug-18 15:08 42.379192 -122.878560 249 1302ft 0kts
06-Aug-18 15:09 42.379192 -122.878560 249 1302ft 0kts
06-Aug-18 15:10 42.379192 -122.878560 249 1302ft 0kts
06-Aug-18 15:11 42.379192 -122.878560 249 1302ft 0kts
06-Aug-18 15:12 42.379192 -122.878560 249 1302ft 0kts
06-Aug-18 15:13 42.379192 -122.878560 249 1302ft 0kts
06-Aug-18 15:14 42.379192 -122.878560 249 1302ft 0kts
06-Aug-18 15:15 42.379192 -122.878560 249 1302ft 0kts
06-Aug-18 15:16 42.379192 -122.878560 249 1302ft 0kts
06-Aug-18 15:17 42.379192 -122.878560 249 1302ft 0kts
06-Aug-18 15:18 42.379192 -122.878560 249 1302ft 0kts
06-Aug-18 15:19 42.379192 -122.878560 249 1302ft 0kts
06-Aug-18 15:20 42.379192 -122.878560 249 1302ft 0kts
06-Aug-18 15:21 42.379192 -122.878560 249 1302ft 0kts
06-Aug-18 15:22 42.379192 -122.878560 249 1302ft 0kts
06-Aug-18 15:23 42.379192 -122.878560 249 1302ft 0kts
06-Aug-18 15:24 42.379192 -122.878560 249 1302ft 0kts
06-Aug-18 15:25 42.379203 -122.878642 312 1302ft 3kts
06-Aug-18 15:26 42.381565 -122.878327 338 1302ft 14kts
06-Aug-18 15:27 42.385797 -122.880138 60 1299ft 0kts
06-Aug-18 15:28 42.385797 -122.880138 60 1299ft 0kts
06-Aug-18 15:29 42.381938 -122.876976 156 1302ft 85kts
06-Aug-18 15:30 42.353011 -122.867677 206 2242ft 122kts
06-Aug-18 15:31 42.350725 -122.909276 327 3372ft 146kts
06-Aug-18 15:32 42.390184 -122.911179 4 4483ft 145kts
06-Aug-18 15:33 42.415512 -122.946766 292 5440ft 149kts
06-Aug-18 15:34 42.431228 -122.996436 291 6607ft 138kts
06-Aug-18 15:35 42.446424 -123.042129 292 7668ft 133kts
06-Aug-18 15:36 42.463256 -123.092267 292 8019ft 169kts
06-Aug-18 15:37 42.483697 -123.154150 292 8012ft 186kts
06-Aug-18 15:38 42.505031 -123.217986 292 8037ft 188kts
06-Aug-18 15:39 42.535086 -123.275702 338 8037ft 198kts
06-Aug-18 15:40 42.589503 -123.283807 356 8158ft 196kts
06-Aug-18 15:41 42.644335 -123.289702 355 8165ft 199kts
06-Aug-18 15:42 42.699675 -123.295967 355 8166ft 202kts
06-Aug-18 15:43 42.756225 -123.302603 353 8163ft 206kts
06-Aug-18 15:44 42.801479 -123.346751 314 8166ft 206kts
06-Aug-18 15:45 42.842342 -123.401505 313 8165ft 206kts
06-Aug-18 15:46 42.883376 -123.455946 316 8166ft 207kts
06-Aug-18 15:47 42.926255 -123.508312 312 8166ft 206kts
06-Aug-18 15:48 42.966133 -123.564841 312 8098ft 210kts
06-Aug-18 15:49 43.007120 -123.620778 312 8009ft 205kts
06-Aug-18 15:50 43.047338 -123.674659 312 8010ft 203kts
06-Aug-18 15:51 43.087382 -123.728335 312 8009ft 199kts
06-Aug-18 15:52 43.126585 -123.780403 312 8007ft 195kts
06-Aug-18 15:53 43.165512 -123.832297 312 7927ft 197kts
06-Aug-18 15:54 43.203950 -123.883517 311 8014ft 189kts
06-Aug-18 15:55 43.241508 -123.934019 311 8017ft 189kts
06-Aug-18 15:56 43.279508 -123.985149 311 7084ft 195kts
06-Aug-18 15:57 43.317246 -124.036000 312 5510ft 185kts
06-Aug-18 15:58 43.351316 -124.081902 312 4889ft 154kts
06-Aug-18 15:59 43.379828 -124.120394 311 4658ft 135kts
06-Aug-18 16:00 43.406630 -124.157215 311 4462ft 138kts
06-Aug-18 16:01 43.420103 -124.203899 261 4022ft 145kts
06-Aug-18 16:02 43.407095 -124.256805 251 3334ft 150kts
06-Aug-18 16:03 43.391067 -124.308686 251 2545ft 141kts
06-Aug-18 16:04 43.375583 -124.354588 247 2017ft 125kts
06-Aug-18 16:05 43.355448 -124.391703 217 2016ft 122kts
06-Aug-18 16:06 43.320130 -124.402228 198 2020ft 138kts
06-Aug-18 16:07 43.325970 -124.422847 9 2022ft 116kts
06-Aug-18 16:08 43.355025 -124.404735 48 2022ft 122kts
06-Aug-18 16:09 43.371977 -124.364675 52 1369ft 110kts
06-Aug-18 16:10 43.385529 -124.330773 49 793ft 97kts
06-Aug-18 16:11 43.397807 -124.300933 46 539ft 85kts
06-Aug-18 16:12 43.409086 -124.274035 51 280ft 83kts
06-Aug-18 16:13 43.419393 -124.249240 63 7ft 54kts
06-Aug-18 16:14 43.421286 -124.241430 240 7ft 13kts
06-Aug-18 16:15 43.419059 -124.246829 221 7ft 13kts
06-Aug-18 16:16 43.417096 -124.247919 152 7ft 0kts

Navigation Log

Ident Type
Flight plan parsing failed, navigation log unavailable